sensor_id;sensor_type;location;lat;lon;timestamp;temperature;humidity
26254;DHT22;53339;51.378;0.094;2023-10-19T00:00:14;14.10;90.60
26254;DHT22;53339;51.378;0.094;2023-10-19T00:02:50;14.10;90.60
26254;DHT22;53339;51.378;0.094;2023-10-19T00:05:25;14.00;90.40
26254;DHT22;53339;51.378;0.094;2023-10-19T00:07:54;13.90;90.30
26254;DHT22;53339;51.378;0.094;2023-10-19T00:10:25;13.90;90.20
26254;DHT22;53339;51.378;0.094;2023-10-19T00:13:01;13.80;90.10
26254;DHT22;53339;51.378;0.094;2023-10-19T00:15:37;13.70;90.00
26254;DHT22;53339;51.378;0.094;2023-10-19T00:18:08;13.70;90.00
26254;DHT22;53339;51.378;0.094;2023-10-19T00:20:47;13.70;89.90
26254;DHT22;53339;51.378;0.094;2023-10-19T00:23:22;13.70;90.10
26254;DHT22;53339;51.378;0.094;2023-10-19T00:26:01;13.70;90.10
26254;DHT22;53339;51.378;0.094;2023-10-19T00:28:42;13.70;90.10
26254;DHT22;53339;51.378;0.094;2023-10-19T00:31:13;13.80;90.10
26254;DHT22;53339;51.378;0.094;2023-10-19T00:33:41;13.90;90.10
26254;DHT22;53339;51.378;0.094;2023-10-19T00:36:10;13.90;90.10
26254;DHT22;53339;51.378;0.094;2023-10-19T00:38:41;14.10;90.10
26254;DHT22;53339;51.378;0.094;2023-10-19T00:41:24;14.10;90.10
26254;DHT22;53339;51.378;0.094;2023-10-19T00:43:58;14.10;90.00
26254;DHT22;53339;51.378;0.094;2023-10-19T00:46:39;14.10;90.00
26254;DHT22;53339;51.378;0.094;2023-10-19T00:49:11;14.10;90.00
26254;DHT22;53339;51.378;0.094;2023-10-19T00:51:56;14.10;90.00
26254;DHT22;53339;51.378;0.094;2023-10-19T00:54:34;14.10;90.00
26254;DHT22;53339;51.378;0.094;2023-10-19T00:57:05;14.10;90.10
26254;DHT22;53339;51.378;0.094;2023-10-19T00:59:48;14.10;90.10
26254;DHT22;53339;51.378;0.094;2023-10-19T01:02:18;14.20;90.10
26254;DHT22;53339;51.378;0.094;2023-10-19T01:04:51;14.20;90.20
26254;DHT22;53339;51.378;0.094;2023-10-19T01:07:41;14.30;90.30
26254;DHT22;53339;51.378;0.094;2023-10-19T01:10:09;14.30;90.30
26254;DHT22;53339;51.378;0.094;2023-10-19T01:12:41;14.30;90.30
26254;DHT22;53339;51.378;0.094;2023-10-19T01:17:48;14.40;90.40
26254;DHT22;53339;51.378;0.094;2023-10-19T01:20:24;14.40;90.40
26254;DHT22;53339;51.378;0.094;2023-10-19T01:28:38;14.40;90.50
26254;DHT22;53339;51.378;0.094;2023-10-19T01:31:17;14.40;90.60
26254;DHT22;53339;51.378;0.094;2023-10-19T01:34:00;14.40;90.60
26254;DHT22;53339;51.378;0.094;2023-10-19T01:36:36;14.40;90.80
26254;DHT22;53339;51.378;0.094;2023-10-19T01:39:10;14.50;90.90
26254;DHT22;53339;51.378;0.094;2023-10-19T01:41:39;14.50;90.90
26254;DHT22;53339;51.378;0.094;2023-10-19T01:44:09;14.60;91.00
26254;DHT22;53339;51.378;0.094;2023-10-19T01:46:41;14.60;91.10
26254;DHT22;53339;51.378;0.094;2023-10-19T01:49:12;14.70;91.10
26254;DHT22;53339;51.378;0.094;2023-10-19T01:51:40;14.70;91.20
26254;DHT22;53339;51.378;0.094;2023-10-19T01:54:09;14.80;91.20
26254;DHT22;53339;51.378;0.094;2023-10-19T01:56:37;14.90;91.20
26254;DHT22;53339;51.378;0.094;2023-10-19T01:59:07;14.90;91.20
26254;DHT22;53339;51.378;0.094;2023-10-19T02:01:39;14.90;91.20
26254;DHT22;53339;51.378;0.094;2023-10-19T02:04:09;15.00;91.20
26254;DHT22;53339;51.378;0.094;2023-10-19T02:06:39;15.10;91.20
26254;DHT22;53339;51.378;0.094;2023-10-19T02:09:14;15.10;91.20
26254;DHT22;53339;51.378;0.094;2023-10-19T02:11:48;15.10;91.20
26254;DHT22;53339;51.378;0.094;2023-10-19T02:14:18;15.10;91.20
26254;DHT22;53339;51.378;0.094;2023-10-19T02:16:51;15.20;91.20
26254;DHT22;53339;51.378;0.094;2023-10-19T02:19:21;15.20;91.20
26254;DHT22;53339;51.378;0.094;2023-10-19T02:21:51;15.20;91.20
26254;DHT22;53339;51.378;0.094;2023-10-19T02:24:20;15.20;91.10
26254;DHT22;53339;51.378;0.094;2023-10-19T02:26:54;15.20;91.20
26254;DHT22;53339;51.378;0.094;2023-10-19T02:29:23;15.10;91.20
26254;DHT22;53339;51.378;0.094;2023-10-19T02:31:52;15.20;91.20
26254;DHT22;53339;51.378;0.094;2023-10-19T02:34:21;15.10;91.30
26254;DHT22;53339;51.378;0.094;2023-10-19T02:36:50;15.20;91.30
26254;DHT22;53339;51.378;0.094;2023-10-19T02:39:18;15.20;91.40
26254;DHT22;53339;51.378;0.094;2023-10-19T02:41:48;15.20;91.40
26254;DHT22;53339;51.378;0.094;2023-10-19T02:44:17;15.30;91.50
26254;DHT22;53339;51.378;0.094;2023-10-19T02:46:50;15.30;91.50
26254;DHT22;53339;51.378;0.094;2023-10-19T02:49:21;15.30;91.60
26254;DHT22;53339;51.378;0.094;2023-10-19T02:51:50;15.30;91.60
26254;DHT22;53339;51.378;0.094;2023-10-19T02:54:20;15.40;91.60
26254;DHT22;53339;51.378;0.094;2023-10-19T02:56:55;15.40;91.60
26254;DHT22;53339;51.378;0.094;2023-10-19T02:59:27;15.40;91.70
26254;DHT22;53339;51.378;0.094;2023-10-19T03:02:00;15.40;91.70
26254;DHT22;53339;51.378;0.094;2023-10-19T03:04:30;15.50;91.70
26254;DHT22;53339;51.378;0.094;2023-10-19T03:06:58;15.50;91.70
26254;DHT22;53339;51.378;0.094;2023-10-19T03:09:26;15.50;91.70
26254;DHT22;53339;51.378;0.094;2023-10-19T03:11:55;15.50;91.70
26254;DHT22;53339;51.378;0.094;2023-10-19T03:14:24;15.50;91.70
26254;DHT22;53339;51.378;0.094;2023-10-19T03:16:53;15.60;91.70
26254;DHT22;53339;51.378;0.094;2023-10-19T03:19:25;15.50;91.70
26254;DHT22;53339;51.378;0.094;2023-10-19T03:21:53;15.60;91.70
26254;DHT22;53339;51.378;0.094;2023-10-19T03:24:23;15.60;91.70
26254;DHT22;53339;51.378;0.094;2023-10-19T03:26:51;15.60;91.80
26254;DHT22;53339;51.378;0.094;2023-10-19T03:29:19;15.60;91.80
26254;DHT22;53339;51.378;0.094;2023-10-19T03:31:53;15.60;91.80
26254;DHT22;53339;51.378;0.094;2023-10-19T03:34:21;15.70;91.80
26254;DHT22;53339;51.378;0.094;2023-10-19T03:36:51;15.60;91.80
26254;DHT22;53339;51.378;0.094;2023-10-19T03:39:20;15.60;91.80
26254;DHT22;53339;51.378;0.094;2023-10-19T03:41:49;15.70;91.80
26254;DHT22;53339;51.378;0.094;2023-10-19T03:44:19;15.70;91.80
26254;DHT22;53339;51.378;0.094;2023-10-19T03:46:52;15.70;91.80
26254;DHT22;53339;51.378;0.094;2023-10-19T03:49:25;15.70;91.70
26254;DHT22;53339;51.378;0.094;2023-10-19T03:52:07;15.70;91.70
26254;DHT22;53339;51.378;0.094;2023-10-19T03:54:37;15.70;91.70
26254;DHT22;53339;51.378;0.094;2023-10-19T03:57:11;15.70;91.70
26254;DHT22;53339;51.378;0.094;2023-10-19T03:59:52;15.60;91.70
26254;DHT22;53339;51.378;0.094;2023-10-19T04:02:24;15.70;91.70
26254;DHT22;53339;51.378;0.094;2023-10-19T04:04:54;15.70;91.70
26254;DHT22;53339;51.378;0.094;2023-10-19T04:07:25;15.60;91.70
26254;DHT22;53339;51.378;0.094;2023-10-19T04:09:54;15.60;91.70
26254;DHT22;53339;51.378;0.094;2023-10-19T04:12:37;15.60;91.70
26254;DHT22;53339;51.378;0.094;2023-10-19T04:15:06;15.60;91.80
26254;DHT22;53339;51.378;0.094;2023-10-19T04:17:46;15.60;91.80
26254;DHT22;53339;51.378;0.094;2023-10-19T04:20:17;15.60;91.80
26254;DHT22;53339;51.378;0.094;2023-10-19T04:22:47;15.60;91.80
26254;DHT22;53339;51.378;0.094;2023-10-19T04:25:16;15.60;91.80
26254;DHT22;53339;51.378;0.094;2023-10-19T04:27:45;15.60;91.80
26254;DHT22;53339;51.378;0.094;2023-10-19T04:30:14;15.60;91.80
26254;DHT22;53339;51.378;0.094;2023-10-19T04:32:55;15.60;91.90
26254;DHT22;53339;51.378;0.094;2023-10-19T04:35:28;15.50;91.90
26254;DHT22;53339;51.378;0.094;2023-10-19T04:37:58;15.60;91.90
26254;DHT22;53339;51.378;0.094;2023-10-19T04:40:27;15.50;91.90
26254;DHT22;53339;51.378;0.094;2023-10-19T04:42:55;15.50;91.90
26254;DHT22;53339;51.378;0.094;2023-10-19T04:45:23;15.50;92.00
26254;DHT22;53339;51.378;0.094;2023-10-19T04:47:51;15.50;92.00
26254;DHT22;53339;51.378;0.094;2023-10-19T04:50:23;15.50;92.00
26254;DHT22;53339;51.378;0.094;2023-10-19T04:52:52;15.60;92.00
26254;DHT22;53339;51.378;0.094;2023-10-19T04:55:20;15.60;92.00
26254;DHT22;53339;51.378;0.094;2023-10-19T04:57:47;15.50;92.00
26254;DHT22;53339;51.378;0.094;2023-10-19T05:00:17;15.50;92.10
26254;DHT22;53339;51.378;0.094;2023-10-19T05:02:48;15.60;92.10
26254;DHT22;53339;51.378;0.094;2023-10-19T05:05:16;15.60;92.10
26254;DHT22;53339;51.378;0.094;2023-10-19T05:07:45;15.60;92.10
26254;DHT22;53339;51.378;0.094;2023-10-19T05:10:12;15.60;92.10
26254;DHT22;53339;51.378;0.094;2023-10-19T05:12:40;15.60;92.10
26254;DHT22;53339;51.378;0.094;2023-10-19T05:15:08;15.60;92.10
26254;DHT22;53339;51.378;0.094;2023-10-19T05:17:36;15.60;92.10
26254;DHT22;53339;51.378;0.094;2023-10-19T05:20:04;15.60;92.10
26254;DHT22;53339;51.378;0.094;2023-10-19T05:22:33;15.60;92.20
26254;DHT22;53339;51.378;0.094;2023-10-19T05:25:01;15.60;92.20
26254;DHT22;53339;51.378;0.094;2023-10-19T05:27:29;15.60;92.20
26254;DHT22;53339;51.378;0.094;2023-10-19T05:29:56;15.60;92.20
26254;DHT22;53339;51.378;0.094;2023-10-19T05:32:24;15.60;92.20
26254;DHT22;53339;51.378;0.094;2023-10-19T05:34:54;15.60;92.20
26254;DHT22;53339;51.378;0.094;2023-10-19T05:37:27;15.60;92.20
26254;DHT22;53339;51.378;0.094;2023-10-19T05:39:57;15.60;92.20
26254;DHT22;53339;51.378;0.094;2023-10-19T05:42:24;15.60;92.20
26254;DHT22;53339;51.378;0.094;2023-10-19T05:44:52;15.60;92.20
26254;DHT22;53339;51.378;0.094;2023-10-19T05:47:20;15.60;92.20
26254;DHT22;53339;51.378;0.094;2023-10-19T05:49:48;15.60;92.20
26254;DHT22;53339;51.378;0.094;2023-10-19T05:52:16;15.60;92.30
26254;DHT22;53339;51.378;0.094;2023-10-19T05:54:44;15.60;92.30
26254;DHT22;53339;51.378;0.094;2023-10-19T05:57:12;15.60;92.30
26254;DHT22;53339;51.378;0.094;2023-10-19T05:59:39;15.60;92.30
26254;DHT22;53339;51.378;0.094;2023-10-19T06:02:08;15.60;92.30
26254;DHT22;53339;51.378;0.094;2023-10-19T06:04:36;15.60;92.30
26254;DHT22;53339;51.378;0.094;2023-10-19T06:07:05;15.60;92.30
26254;DHT22;53339;51.378;0.094;2023-10-19T06:09:33;15.60;92.30
26254;DHT22;53339;51.378;0.094;2023-10-19T06:12:03;15.60;92.30
26254;DHT22;53339;51.378;0.094;2023-10-19T06:14:31;15.70;92.30
26254;DHT22;53339;51.378;0.094;2023-10-19T06:16:59;15.70;92.30
26254;DHT22;53339;51.378;0.094;2023-10-19T06:19:28;15.70;92.30
26254;DHT22;53339;51.378;0.094;2023-10-19T06:21:56;15.70;92.30
26254;DHT22;53339;51.378;0.094;2023-10-19T06:24:24;15.70;92.30
26254;DHT22;53339;51.378;0.094;2023-10-19T06:26:52;15.70;92.30
26254;DHT22;53339;51.378;0.094;2023-10-19T06:29:20;15.80;92.30
26254;DHT22;53339;51.378;0.094;2023-10-19T06:31:48;15.70;92.30
26254;DHT22;53339;51.378;0.094;2023-10-19T06:34:16;15.80;92.30
26254;DHT22;53339;51.378;0.094;2023-10-19T06:36:44;15.70;92.30
26254;DHT22;53339;51.378;0.094;2023-10-19T06:39:12;15.80;92.30
26254;DHT22;53339;51.378;0.094;2023-10-19T06:41:41;15.70;92.30
26254;DHT22;53339;51.378;0.094;2023-10-19T06:44:08;15.70;92.30
26254;DHT22;53339;51.378;0.094;2023-10-19T06:46:36;15.70;92.30
26254;DHT22;53339;51.378;0.094;2023-10-19T06:49:04;15.80;92.30
26254;DHT22;53339;51.378;0.094;2023-10-19T06:51:31;15.80;92.30
26254;DHT22;53339;51.378;0.094;2023-10-19T06:54:00;15.80;92.30
26254;DHT22;53339;51.378;0.094;2023-10-19T06:56:28;15.80;92.30
26254;DHT22;53339;51.378;0.094;2023-10-19T06:58:58;15.80;92.30
26254;DHT22;53339;51.378;0.094;2023-10-19T07:01:25;15.90;92.30
26254;DHT22;53339;51.378;0.094;2023-10-19T07:03:56;15.90;92.30
26254;DHT22;53339;51.378;0.094;2023-10-19T07:06:28;15.90;92.30
26254;DHT22;53339;51.378;0.094;2023-10-19T07:08:56;15.90;92.30
26254;DHT22;53339;51.378;0.094;2023-10-19T07:11:24;15.90;92.30
26254;DHT22;53339;51.378;0.094;2023-10-19T07:13:51;15.90;92.30
26254;DHT22;53339;51.378;0.094;2023-10-19T07:16:19;15.90;92.30
26254;DHT22;53339;51.378;0.094;2023-10-19T07:18:47;15.90;92.30
26254;DHT22;53339;51.378;0.094;2023-10-19T07:21:16;15.90;92.20
26254;DHT22;53339;51.378;0.094;2023-10-19T07:23:45;15.90;92.30
26254;DHT22;53339;51.378;0.094;2023-10-19T07:26:13;15.90;92.20
26254;DHT22;53339;51.378;0.094;2023-10-19T07:28:41;15.90;92.30
26254;DHT22;53339;51.378;0.094;2023-10-19T07:31:10;15.90;92.30
26254;DHT22;53339;51.378;0.094;2023-10-19T07:33:42;15.90;92.30
26254;DHT22;53339;51.378;0.094;2023-10-19T07:36:17;15.90;92.30
26254;DHT22;53339;51.378;0.094;2023-10-19T07:38:46;15.90;92.30
26254;DHT22;53339;51.378;0.094;2023-10-19T07:41:15;15.90;92.40
26254;DHT22;53339;51.378;0.094;2023-10-19T07:43:43;15.90;92.40
26254;DHT22;53339;51.378;0.094;2023-10-19T07:46:14;15.90;92.30
26254;DHT22;53339;51.378;0.094;2023-10-19T07:48:41;15.90;92.30
26254;DHT22;53339;51.378;0.094;2023-10-19T07:51:09;15.90;92.30
26254;DHT22;53339;51.378;0.094;2023-10-19T07:53:40;15.90;92.20
26254;DHT22;53339;51.378;0.094;2023-10-19T07:56:07;15.80;92.20
26254;DHT22;53339;51.378;0.094;2023-10-19T07:58:38;15.80;92.30
26254;DHT22;53339;51.378;0.094;2023-10-19T08:01:10;15.80;92.30
26254;DHT22;53339;51.378;0.094;2023-10-19T08:03:39;15.80;92.30
26254;DHT22;53339;51.378;0.094;2023-10-19T08:06:07;15.70;92.30
26254;DHT22;53339;51.378;0.094;2023-10-19T08:08:35;15.70;92.30
26254;DHT22;53339;51.378;0.094;2023-10-19T08:11:03;15.70;92.30
26254;DHT22;53339;51.378;0.094;2023-10-19T08:13:30;15.60;92.30
26254;DHT22;53339;51.378;0.094;2023-10-19T08:16:00;15.50;92.10
26254;DHT22;53339;51.378;0.094;2023-10-19T08:18:27;15.20;91.80
26254;DHT22;53339;51.378;0.094;2023-10-19T08:20:58;15.10;91.90
26254;DHT22;53339;51.378;0.094;2023-10-19T08:23:25;15.20;92.20
26254;DHT22;53339;51.378;0.094;2023-10-19T08:25:55;15.30;92.30
26254;DHT22;53339;51.378;0.094;2023-10-19T08:28:24;15.20;92.20
26254;DHT22;53339;51.378;0.094;2023-10-19T08:30:52;15.10;92.20
26254;DHT22;53339;51.378;0.094;2023-10-19T08:33:28;15.30;92.50
26254;DHT22;53339;51.378;0.094;2023-10-19T08:35:57;15.30;92.50
26254;DHT22;53339;51.378;0.094;2023-10-19T08:38:28;15.30;92.40
26254;DHT22;53339;51.378;0.094;2023-10-19T08:40:56;15.20;92.40
26254;DHT22;53339;51.378;0.094;2023-10-19T08:43:24;15.30;92.60
26254;DHT22;53339;51.378;0.094;2023-10-19T08:45:54;15.40;92.70
26254;DHT22;53339;51.378;0.094;2023-10-19T08:48:23;15.40;92.60
26254;DHT22;53339;51.378;0.094;2023-10-19T08:50:54;15.30;92.50
26254;DHT22;53339;51.378;0.094;2023-10-19T08:53:24;15.50;92.80
26254;DHT22;53339;51.378;0.094;2023-10-19T08:55:51;15.60;92.80
26254;DHT22;53339;51.378;0.094;2023-10-19T08:58:22;15.60;92.80
26254;DHT22;53339;51.378;0.094;2023-10-19T09:00:51;15.50;92.70
26254;DHT22;53339;51.378;0.094;2023-10-19T09:03:24;15.60;92.90
26254;DHT22;53339;51.378;0.094;2023-10-19T09:05:54;15.70;92.90
26254;DHT22;53339;51.378;0.094;2023-10-19T09:08:24;15.70;92.80
26254;DHT22;53339;51.378;0.094;2023-10-19T09:10:52;15.70;92.80
26254;DHT22;53339;51.378;0.094;2023-10-19T09:13:25;15.80;92.90
26254;DHT22;53339;51.378;0.094;2023-10-19T09:15:53;15.90;92.90
26254;DHT22;53339;51.378;0.094;2023-10-19T09:18:23;15.70;92.70
26254;DHT22;53339;51.378;0.094;2023-10-19T09:20:52;15.70;92.60
26254;DHT22;53339;51.378;0.094;2023-10-19T09:23:25;15.70;92.80
26254;DHT22;53339;51.378;0.094;2023-10-19T09:25:59;15.80;92.80
26254;DHT22;53339;51.378;0.094;2023-10-19T09:28:39;15.80;92.80
26254;DHT22;53339;51.378;0.094;2023-10-19T09:31:08;15.80;92.90
26254;DHT22;53339;51.378;0.094;2023-10-19T09:33:40;16.00;93.00
26254;DHT22;53339;51.378;0.094;2023-10-19T09:36:10;16.10;93.00
26254;DHT22;53339;51.378;0.094;2023-10-19T09:38:49;16.00;92.80
26254;DHT22;53339;51.378;0.094;2023-10-19T09:41:20;15.90;92.80
26254;DHT22;53339;51.378;0.094;2023-10-19T09:43:52;16.00;92.90
26254;DHT22;53339;51.378;0.094;2023-10-19T09:46:26;16.00;92.90
26254;DHT22;53339;51.378;0.094;2023-10-19T09:48:54;15.90;92.70
26254;DHT22;53339;51.378;0.094;2023-10-19T09:51:26;15.80;92.70
26254;DHT22;53339;51.378;0.094;2023-10-19T09:54:01;15.80;92.80
26254;DHT22;53339;51.378;0.094;2023-10-19T09:56:48;16.00;92.90
26254;DHT22;53339;51.378;0.094;2023-10-19T09:59:38;15.90;92.80
26254;DHT22;53339;51.378;0.094;2023-10-19T10:02:09;15.90;92.90
26254;DHT22;53339;51.378;0.094;2023-10-19T10:04:42;16.00;93.00
26254;DHT22;53339;51.378;0.094;2023-10-19T10:07:13;16.10;93.10
26254;DHT22;53339;51.378;0.094;2023-10-19T10:09:48;16.30;93.10
26254;DHT22;53339;51.378;0.094;2023-10-19T10:12:24;16.40;93.20
26254;DHT22;53339;51.378;0.094;2023-10-19T10:14:58;16.50;93.30
26254;DHT22;53339;51.378;0.094;2023-10-19T10:17:26;16.60;93.30
26254;DHT22;53339;51.378;0.094;2023-10-19T10:22:45;16.70;93.30
26254;DHT22;53339;51.378;0.094;2023-10-19T10:25:34;16.80;93.30
26254;DHT22;53339;51.378;0.094;2023-10-19T10:28:03;16.90;93.30
26254;DHT22;53339;51.378;0.094;2023-10-19T10:30:32;17.00;93.30
26254;DHT22;53339;51.378;0.094;2023-10-19T10:33:00;17.20;93.40
26254;DHT22;53339;51.378;0.094;2023-10-19T10:38:10;17.40;93.40
26254;DHT22;53339;51.378;0.094;2023-10-19T10:40:46;17.50;93.30
26254;DHT22;53339;51.378;0.094;2023-10-19T10:43:17;17.50;93.30
26254;DHT22;53339;51.378;0.094;2023-10-19T10:45:45;17.50;93.10
26254;DHT22;53339;51.378;0.094;2023-10-19T10:48:13;17.50;93.10
26254;DHT22;53339;51.378;0.094;2023-10-19T10:50:42;17.50;93.20
26254;DHT22;53339;51.378;0.094;2023-10-19T10:53:14;17.60;93.30
26254;DHT22;53339;51.378;0.094;2023-10-19T10:55:47;17.80;93.30
26254;DHT22;53339;51.378;0.094;2023-10-19T10:58:16;18.00;93.40
26254;DHT22;53339;51.378;0.094;2023-10-19T11:00:44;18.20;93.40
26254;DHT22;53339;51.378;0.094;2023-10-19T11:03:15;18.30;93.20
26254;DHT22;53339;51.378;0.094;2023-10-19T11:05:43;18.20;93.10
26254;DHT22;53339;51.378;0.094;2023-10-19T11:08:17;18.20;93.00
26254;DHT22;53339;51.378;0.094;2023-10-19T11:10:48;18.20;92.90
26254;DHT22;53339;51.378;0.094;2023-10-19T11:13:23;18.20;92.90
26254;DHT22;53339;51.378;0.094;2023-10-19T11:15:55;18.20;92.90
26254;DHT22;53339;51.378;0.094;2023-10-19T11:18:31;18.20;93.00
26254;DHT22;53339;51.378;0.094;2023-10-19T11:21:02;18.20;92.80
26254;DHT22;53339;51.378;0.094;2023-10-19T11:23:36;18.30;92.80
26254;DHT22;53339;51.378;0.094;2023-10-19T11:26:04;18.30;92.80
26254;DHT22;53339;51.378;0.094;2023-10-19T11:28:33;18.30;92.70
26254;DHT22;53339;51.378;0.094;2023-10-19T11:31:19;18.40;92.70
26254;DHT22;53339;51.378;0.094;2023-10-19T11:33:47;18.50;92.90
26254;DHT22;53339;51.378;0.094;2023-10-19T11:36:18;18.70;93.00
26254;DHT22;53339;51.378;0.094;2023-10-19T11:38:48;18.80;93.00
26254;DHT22;53339;51.378;0.094;2023-10-19T11:41:17;18.90;93.00
26254;DHT22;53339;51.378;0.094;2023-10-19T11:43:45;19.00;92.90
26254;DHT22;53339;51.378;0.094;2023-10-19T11:46:13;19.00;92.90
26254;DHT22;53339;51.378;0.094;2023-10-19T11:48:53;19.00;92.90
26254;DHT22;53339;51.378;0.094;2023-10-19T11:51:20;19.00;92.80
26254;DHT22;53339;51.378;0.094;2023-10-19T11:53:48;18.90;92.60
26254;DHT22;53339;51.378;0.094;2023-10-19T11:56:19;18.70;92.50
26254;DHT22;53339;51.378;0.094;2023-10-19T11:58:51;18.60;92.30
26254;DHT22;53339;51.378;0.094;2023-10-19T12:01:19;18.50;92.40
26254;DHT22;53339;51.378;0.094;2023-10-19T12:03:49;18.40;92.40
26254;DHT22;53339;51.378;0.094;2023-10-19T12:06:17;18.40;92.50
26254;DHT22;53339;51.378;0.094;2023-10-19T12:08:51;18.60;92.80
26254;DHT22;53339;51.378;0.094;2023-10-19T12:11:18;18.80;92.90
26254;DHT22;53339;51.378;0.094;2023-10-19T12:13:47;19.00;92.90
26254;DHT22;53339;51.378;0.094;2023-10-19T12:16:16;19.00;92.60
26254;DHT22;53339;51.378;0.094;2023-10-19T12:18:44;19.00;92.50
26254;DHT22;53339;51.378;0.094;2023-10-19T12:21:14;18.90;92.30
26254;DHT22;53339;51.378;0.094;2023-10-19T12:23:43;18.80;92.20
26254;DHT22;53339;51.378;0.094;2023-10-19T12:26:11;18.70;92.30
26254;DHT22;53339;51.378;0.094;2023-10-19T12:28:40;18.80;92.40
26254;DHT22;53339;51.378;0.094;2023-10-19T12:31:09;18.90;92.40
26254;DHT22;53339;51.378;0.094;2023-10-19T12:33:37;18.90;92.40
26254;DHT22;53339;51.378;0.094;2023-10-19T12:36:06;19.10;92.70
26254;DHT22;53339;51.378;0.094;2023-10-19T12:38:58;19.30;92.70
26254;DHT22;53339;51.378;0.094;2023-10-19T12:41:28;19.50;92.50
26254;DHT22;53339;51.378;0.094;2023-10-19T12:43:56;19.50;92.50
26254;DHT22;53339;51.378;0.094;2023-10-19T12:46:30;19.50;92.30
26254;DHT22;53339;51.378;0.094;2023-10-19T12:48:58;19.40;92.20
26254;DHT22;53339;51.378;0.094;2023-10-19T12:51:26;19.30;91.70
26254;DHT22;53339;51.378;0.094;2023-10-19T12:53:54;19.20;91.70
26254;DHT22;53339;51.378;0.094;2023-10-19T12:56:22;19.00;90.80
26254;DHT22;53339;51.378;0.094;2023-10-19T12:58:57;18.80;90.90
26254;DHT22;53339;51.378;0.094;2023-10-19T13:01:25;18.60;90.80
26254;DHT22;53339;51.378;0.094;2023-10-19T13:03:56;18.50;91.20
26254;DHT22;53339;51.378;0.094;2023-10-19T13:06:24;18.50;91.60
26254;DHT22;53339;51.378;0.094;2023-10-19T13:08:56;18.50;91.70
26254;DHT22;53339;51.378;0.094;2023-10-19T13:11:25;18.50;91.90
26254;DHT22;53339;51.378;0.094;2023-10-19T13:13:54;18.60;92.10
26254;DHT22;53339;51.378;0.094;2023-10-19T13:16:22;18.80;92.40
26254;DHT22;53339;51.378;0.094;2023-10-19T13:18:50;18.90;92.30
26254;DHT22;53339;51.378;0.094;2023-10-19T13:21:18;18.90;92.10
26254;DHT22;53339;51.378;0.094;2023-10-19T13:23:49;18.90;92.20
26254;DHT22;53339;51.378;0.094;2023-10-19T13:26:18;18.90;92.30
26254;DHT22;53339;51.378;0.094;2023-10-19T13:28:46;18.90;92.20
26254;DHT22;53339;51.378;0.094;2023-10-19T13:31:14;18.90;92.20
26254;DHT22;53339;51.378;0.094;2023-10-19T13:33:43;19.00;92.20
26254;DHT22;53339;51.378;0.094;2023-10-19T13:36:12;19.00;92.30
26254;DHT22;53339;51.378;0.094;2023-10-19T13:38:44;19.00;92.10
26254;DHT22;53339;51.378;0.094;2023-10-19T13:41:12;19.00;91.90
26254;DHT22;53339;51.378;0.094;2023-10-19T13:43:41;18.90;91.80
26254;DHT22;53339;51.378;0.094;2023-10-19T13:46:14;18.80;91.90
26254;DHT22;53339;51.378;0.094;2023-10-19T13:48:42;18.80;91.90
26254;DHT22;53339;51.378;0.094;2023-10-19T13:51:10;18.80;92.20
26254;DHT22;53339;51.378;0.094;2023-10-19T13:53:41;19.00;92.30
26254;DHT22;53339;51.378;0.094;2023-10-19T13:56:10;19.00;92.20
26254;DHT22;53339;51.378;0.094;2023-10-19T13:58:38;18.90;92.10
26254;DHT22;53339;51.378;0.094;2023-10-19T14:01:07;19.00;92.30
26254;DHT22;53339;51.378;0.094;2023-10-19T14:03:37;19.00;92.30
26254;DHT22;53339;51.378;0.094;2023-10-19T14:06:10;19.10;92.40
26254;DHT22;53339;51.378;0.094;2023-10-19T14:08:39;19.20;92.40
26254;DHT22;53339;51.378;0.094;2023-10-19T14:11:07;19.10;92.30
26254;DHT22;53339;51.378;0.094;2023-10-19T14:13:36;19.00;92.20
26254;DHT22;53339;51.378;0.094;2023-10-19T14:16:07;19.00;92.10
26254;DHT22;53339;51.378;0.094;2023-10-19T14:18:36;19.00;92.20
26254;DHT22;53339;51.378;0.094;2023-10-19T14:21:14;19.10;92.40
26254;DHT22;53339;51.378;0.094;2023-10-19T14:23:43;19.10;92.30
26254;DHT22;53339;51.378;0.094;2023-10-19T14:26:13;19.10;92.30
26254;DHT22;53339;51.378;0.094;2023-10-19T14:28:41;19.10;92.30
26254;DHT22;53339;51.378;0.094;2023-10-19T14:31:09;19.20;92.40
26254;DHT22;53339;51.378;0.094;2023-10-19T14:33:38;19.20;92.40
26254;DHT22;53339;51.378;0.094;2023-10-19T14:36:07;19.30;92.40
26254;DHT22;53339;51.378;0.094;2023-10-19T14:38:35;19.20;92.10
26254;DHT22;53339;51.378;0.094;2023-10-19T14:41:04;19.30;92.30
26254;DHT22;53339;51.378;0.094;2023-10-19T14:43:32;19.50;92.60
26254;DHT22;53339;51.378;0.094;2023-10-19T14:46:00;19.70;92.30
26254;DHT22;53339;51.378;0.094;2023-10-19T14:48:30;19.70;92.20
26254;DHT22;53339;51.378;0.094;2023-10-19T14:50:57;19.60;92.10
26254;DHT22;53339;51.378;0.094;2023-10-19T14:53:25;19.60;92.30
26254;DHT22;53339;51.378;0.094;2023-10-19T14:55:56;19.70;92.30
26254;DHT22;53339;51.378;0.094;2023-10-19T14:58:24;19.70;92.10
26254;DHT22;53339;51.378;0.094;2023-10-19T15:00:53;19.60;92.00
26254;DHT22;53339;51.378;0.094;2023-10-19T15:03:23;19.40;91.90
26254;DHT22;53339;51.378;0.094;2023-10-19T15:05:52;19.30;91.80
26254;DHT22;53339;51.378;0.094;2023-10-19T15:08:21;19.20;91.60
26254;DHT22;53339;51.378;0.094;2023-10-19T15:10:52;19.10;91.70
26254;DHT22;53339;51.378;0.094;2023-10-19T15:13:22;19.00;91.60
26254;DHT22;53339;51.378;0.094;2023-10-19T15:15:50;18.90;91.60
26254;DHT22;53339;51.378;0.094;2023-10-19T15:18:18;18.70;91.70
26254;DHT22;53339;51.378;0.094;2023-10-19T15:20:46;18.70;91.80
26254;DHT22;53339;51.378;0.094;2023-10-19T15:23:14;18.70;91.90
26254;DHT22;53339;51.378;0.094;2023-10-19T15:25:42;18.70;91.90
26254;DHT22;53339;51.378;0.094;2023-10-19T15:28:09;18.60;91.90
26254;DHT22;53339;51.378;0.094;2023-10-19T15:30:40;18.60;91.70
26254;DHT22;53339;51.378;0.094;2023-10-19T15:33:07;18.40;91.60
26254;DHT22;53339;51.378;0.094;2023-10-19T15:35:35;18.30;91.70
26254;DHT22;53339;51.378;0.094;2023-10-19T15:38:06;18.20;91.70
26254;DHT22;53339;51.378;0.094;2023-10-19T15:40:34;18.20;91.80
26254;DHT22;53339;51.378;0.094;2023-10-19T15:43:02;18.10;91.90
26254;DHT22;53339;51.378;0.094;2023-10-19T15:45:33;18.10;91.90
26254;DHT22;53339;51.378;0.094;2023-10-19T15:48:02;18.00;91.90
26254;DHT22;53339;51.378;0.094;2023-10-19T15:50:30;17.90;91.90
26254;DHT22;53339;51.378;0.094;2023-10-19T15:52:58;17.80;91.90
26254;DHT22;53339;51.378;0.094;2023-10-19T15:55:25;17.80;92.00
26254;DHT22;53339;51.378;0.094;2023-10-19T15:57:53;17.80;92.10
26254;DHT22;53339;51.378;0.094;2023-10-19T16:00:25;17.70;92.00
26254;DHT22;53339;51.378;0.094;2023-10-19T16:02:53;17.70;92.10